SCCI/PUQ METAR and TAF weather

Enter ICAO airport designator
Station Type Date Time Source
SCCI METAR 2022/01/28 00:00 UTC NOAA

SCCI 280000Z 18008KT CAVOK 11/08 Q1013 NOSIG


Station Type Date Time Source
SCCI Decoded METAR 2022/01/28 00:00 UTC NOAA

Punta Arenas, Chile (SCCI) 53-00S 070-51W 33M
Jan 27, 2022 - 07:00 PM EST / 2022.01.28 0000 UTC
Wind: from the S (180 degrees) at 9 MPH (8 KT):0
Visibility: greater than 7 mile(s):0
Temperature: 51 F (11 C)
Dew Point: 46 F (8 C)
Relative Humidity: 81%
Pressure (altimeter): 29.91 in. Hg (1013 hPa)
ob: SCCI 280000Z 18008KT CAVOK 11/08 Q1013 NOSIG
cycle: 0

Station Type Date Time Source
SCCI TAF 2022/01/27 18:03 UTC NOAA

TAF SCCI 271600Z 2718/2818 16010G20KT 9999 FEW040 TN07/2808Z TX19/2818Z
BECMG 2722/2800 16005KT
BECMG 2802/2804 VRB03KT 5000 BR SCT010 PROB40
TEMPO 2806/2812 05005KT 0800 FG BKN008
BECMG 2812/2814 32010KT 9999 NSW FEW040

Example: see airport list